sensor_id;sensor_type;location;lat;lon;timestamp;P1;durP1;ratioP1;P2;durP2;ratioP2
29712;SDS011;16623;53.632;10.016;2024-02-16T00:01:54;6.97;;;4.65;;
29712;SDS011;16623;53.632;10.016;2024-02-16T00:04:19;5.25;;;4.45;;
29712;SDS011;16623;53.632;10.016;2024-02-16T00:06:45;7.63;;;4.50;;
29712;SDS011;16623;53.632;10.016;2024-02-16T00:09:12;6.95;;;4.63;;
29712;SDS011;16623;53.632;10.016;2024-02-16T00:11:38;6.65;;;4.32;;
29712;SDS011;16623;53.632;10.016;2024-02-16T00:14:03;10.05;;;5.20;;
29712;SDS011;16623;53.632;10.016;2024-02-16T00:16:29;9.85;;;3.80;;
29712;SDS011;16623;53.632;10.016;2024-02-16T00:18:55;10.98;;;4.93;;
29712;SDS011;16623;53.632;10.016;2024-02-16T00:21:20;8.02;;;4.53;;
29712;SDS011;16623;53.632;10.016;2024-02-16T00:23:46;8.45;;;4.88;;
29712;SDS011;16623;53.632;10.016;2024-02-16T00:26:11;9.07;;;5.03;;
29712;SDS011;16623;53.632;10.016;2024-02-16T00:28:37;6.40;;;4.18;;
29712;SDS011;16623;53.632;10.016;2024-02-16T00:31:03;13.80;;;4.30;;
29712;SDS011;16623;53.632;10.016;2024-02-16T00:33:30;5.30;;;3.70;;
29712;SDS011;16623;53.632;10.016;2024-02-16T00:35:56;5.95;;;3.63;;
29712;SDS011;16623;53.632;10.016;2024-02-16T00:38:21;10.25;;;4.82;;
29712;SDS011;16623;53.632;10.016;2024-02-16T00:40:48;7.35;;;4.15;;
29712;SDS011;16623;53.632;10.016;2024-02-16T00:43:14;7.35;;;4.65;;
29712;SDS011;16623;53.632;10.016;2024-02-16T00:45:40;7.40;;;3.97;;
29712;SDS011;16623;53.632;10.016;2024-02-16T00:48:09;13.98;;;4.15;;
29712;SDS011;16623;53.632;10.016;2024-02-16T00:50:35;9.30;;;3.85;;
29712;SDS011;16623;53.632;10.016;2024-02-16T00:53:01;9.90;;;4.50;;
29712;SDS011;16623;53.632;10.016;2024-02-16T00:55:26;9.82;;;6.35;;
29712;SDS011;16623;53.632;10.016;2024-02-16T00:57:52;5.35;;;3.33;;
29712;SDS011;16623;53.632;10.016;2024-02-16T01:00:17;8.35;;;3.72;;
29712;SDS011;16623;53.632;10.016;2024-02-16T01:02:44;7.82;;;3.38;;
29712;SDS011;16623;53.632;10.016;2024-02-16T01:05:10;5.80;;;3.30;;
29712;SDS011;16623;53.632;10.016;2024-02-16T01:07:36;6.82;;;3.42;;
29712;SDS011;16623;53.632;10.016;2024-02-16T01:10:02;10.20;;;3.63;;
29712;SDS011;16623;53.632;10.016;2024-02-16T01:12:30;6.72;;;3.97;;
29712;SDS011;16623;53.632;10.016;2024-02-16T01:14:57;6.43;;;2.97;;
29712;SDS011;16623;53.632;10.016;2024-02-16T01:17:22;4.65;;;3.95;;
29712;SDS011;16623;53.632;10.016;2024-02-16T01:19:48;7.18;;;3.75;;
29712;SDS011;16623;53.632;10.016;2024-02-16T01:22:13;7.57;;;4.53;;
29712;SDS011;16623;53.632;10.016;2024-02-16T01:24:39;8.02;;;3.60;;
29712;SDS011;16623;53.632;10.016;2024-02-16T01:27:04;6.47;;;3.60;;
29712;SDS011;16623;53.632;10.016;2024-02-16T01:29:30;5.80;;;3.83;;
29712;SDS011;16623;53.632;10.016;2024-02-16T01:31:57;12.13;;;3.30;;
29712;SDS011;16623;53.632;10.016;2024-02-16T01:34:23;7.85;;;3.20;;
29712;SDS011;16623;53.632;10.016;2024-02-16T01:36:49;6.18;;;3.30;;
29712;SDS011;16623;53.632;10.016;2024-02-16T01:39:14;6.53;;;3.65;;
29712;SDS011;16623;53.632;10.016;2024-02-16T01:41:40;9.32;;;3.80;;
29712;SDS011;16623;53.632;10.016;2024-02-16T01:44:05;9.27;;;3.70;;
29712;SDS011;16623;53.632;10.016;2024-02-16T01:46:31;5.72;;;3.10;;
29712;SDS011;16623;53.632;10.016;2024-02-16T01:48:58;6.03;;;3.28;;
29712;SDS011;16623;53.632;10.016;2024-02-16T01:51:24;5.90;;;3.45;;
29712;SDS011;16623;53.632;10.016;2024-02-16T01:53:50;9.77;;;3.95;;
29712;SDS011;16623;53.632;10.016;2024-02-16T01:56:17;9.98;;;4.22;;
29712;SDS011;16623;53.632;10.016;2024-02-16T01:58:46;6.15;;;3.28;;
29712;SDS011;16623;53.632;10.016;2024-02-16T02:01:12;9.05;;;4.43;;
29712;SDS011;16623;53.632;10.016;2024-02-16T02:03:37;11.00;;;4.45;;
29712;SDS011;16623;53.632;10.016;2024-02-16T02:06:03;5.38;;;3.10;;
29712;SDS011;16623;53.632;10.016;2024-02-16T02:08:28;6.05;;;3.00;;
29712;SDS011;16623;53.632;10.016;2024-02-16T02:10:54;5.15;;;2.85;;
29712;SDS011;16623;53.632;10.016;2024-02-16T02:13:19;7.10;;;4.13;;
29712;SDS011;16623;53.632;10.016;2024-02-16T02:15:47;9.20;;;3.50;;
29712;SDS011;16623;53.632;10.016;2024-02-16T02:18:12;7.60;;;3.42;;
29712;SDS011;16623;53.632;10.016;2024-02-16T02:20:39;5.35;;;2.67;;
29712;SDS011;16623;53.632;10.016;2024-02-16T02:23:04;13.07;;;3.25;;
29712;SDS011;16623;53.632;10.016;2024-02-16T02:25:30;7.07;;;3.60;;
29712;SDS011;16623;53.632;10.016;2024-02-16T02:27:55;8.13;;;4.55;;
29712;SDS011;16623;53.632;10.016;2024-02-16T02:30:21;7.72;;;3.47;;
29712;SDS011;16623;53.632;10.016;2024-02-16T02:32:47;4.72;;;2.97;;
29712;SDS011;16623;53.632;10.016;2024-02-16T02:35:15;11.93;;;3.42;;
29712;SDS011;16623;53.632;10.016;2024-02-16T02:37:42;5.20;;;3.35;;
29712;SDS011;16623;53.632;10.016;2024-02-16T02:40:08;5.38;;;3.10;;
29712;SDS011;16623;53.632;10.016;2024-02-16T02:42:34;5.32;;;3.53;;
29712;SDS011;16623;53.632;10.016;2024-02-16T02:45:00;6.13;;;3.40;;
29712;SDS011;16623;53.632;10.016;2024-02-16T02:47:27;7.70;;;3.88;;
29712;SDS011;16623;53.632;10.016;2024-02-16T02:49:52;5.63;;;4.03;;
29712;SDS011;16623;53.632;10.016;2024-02-16T02:52:19;9.38;;;3.40;;
29712;SDS011;16623;53.632;10.016;2024-02-16T02:54:45;9.77;;;3.75;;
29712;SDS011;16623;53.632;10.016;2024-02-16T02:57:11;5.07;;;3.42;;
29712;SDS011;16623;53.632;10.016;2024-02-16T02:59:37;6.05;;;3.35;;
29712;SDS011;16623;53.632;10.016;2024-02-16T03:02:02;10.10;;;3.60;;
29712;SDS011;16623;53.632;10.016;2024-02-16T03:04:28;8.88;;;2.88;;
29712;SDS011;16623;53.632;10.016;2024-02-16T03:06:53;8.23;;;4.25;;
29712;SDS011;16623;53.632;10.016;2024-02-16T03:09:19;12.68;;;4.68;;
29712;SDS011;16623;53.632;10.016;2024-02-16T03:11:44;8.82;;;3.85;;
29712;SDS011;16623;53.632;10.016;2024-02-16T03:14:10;5.97;;;3.95;;
29712;SDS011;16623;53.632;10.016;2024-02-16T03:16:36;6.03;;;2.97;;
29712;SDS011;16623;53.632;10.016;2024-02-16T03:19:02;9.82;;;3.20;;
29712;SDS011;16623;53.632;10.016;2024-02-16T03:21:31;10.35;;;3.58;;
29712;SDS011;16623;53.632;10.016;2024-02-16T03:23:57;9.02;;;3.90;;
29712;SDS011;16623;53.632;10.016;2024-02-16T03:26:23;5.22;;;3.47;;
29712;SDS011;16623;53.632;10.016;2024-02-16T03:28:49;11.93;;;3.33;;
29712;SDS011;16623;53.632;10.016;2024-02-16T03:31:18;5.88;;;3.22;;
29712;SDS011;16623;53.632;10.016;2024-02-16T03:33:45;10.20;;;3.58;;
29712;SDS011;16623;53.632;10.016;2024-02-16T03:36:12;6.88;;;3.45;;
29712;SDS011;16623;53.632;10.016;2024-02-16T03:38:40;5.95;;;3.47;;
29712;SDS011;16623;53.632;10.016;2024-02-16T03:41:19;14.48;;;4.68;;
29712;SDS011;16623;53.632;10.016;2024-02-16T03:43:45;8.75;;;3.28;;
29712;SDS011;16623;53.632;10.016;2024-02-16T03:46:11;5.40;;;3.28;;
29712;SDS011;16623;53.632;10.016;2024-02-16T03:48:37;6.35;;;3.10;;
29712;SDS011;16623;53.632;10.016;2024-02-16T03:51:03;9.77;;;3.35;;
29712;SDS011;16623;53.632;10.016;2024-02-16T03:53:29;13.55;;;5.40;;
29712;SDS011;16623;53.632;10.016;2024-02-16T03:55:54;6.70;;;3.15;;
29712;SDS011;16623;53.632;10.016;2024-02-16T03:58:21;4.93;;;3.22;;
29712;SDS011;16623;53.632;10.016;2024-02-16T04:00:47;8.13;;;2.90;;
29712;SDS011;16623;53.632;10.016;2024-02-16T04:03:13;6.28;;;2.83;;
29712;SDS011;16623;53.632;10.016;2024-02-16T04:05:39;4.68;;;2.70;;
29712;SDS011;16623;53.632;10.016;2024-02-16T04:08:06;8.52;;;3.00;;
29712;SDS011;16623;53.632;10.016;2024-02-16T04:10:32;9.27;;;3.60;;
29712;SDS011;16623;53.632;10.016;2024-02-16T04:12:58;11.15;;;3.33;;
29712;SDS011;16623;53.632;10.016;2024-02-16T04:15:23;6.15;;;2.55;;
29712;SDS011;16623;53.632;10.016;2024-02-16T04:17:49;8.82;;;3.40;;
29712;SDS011;16623;53.632;10.016;2024-02-16T04:20:15;11.55;;;3.78;;
29712;SDS011;16623;53.632;10.016;2024-02-16T04:22:41;9.27;;;3.40;;
29712;SDS011;16623;53.632;10.016;2024-02-16T04:25:06;4.63;;;2.92;;
29712;SDS011;16623;53.632;10.016;2024-02-16T04:27:33;5.22;;;3.17;;
29712;SDS011;16623;53.632;10.016;2024-02-16T04:29:59;6.57;;;3.05;;
29712;SDS011;16623;53.632;10.016;2024-02-16T04:32:25;9.05;;;3.67;;
29712;SDS011;16623;53.632;10.016;2024-02-16T04:34:51;6.00;;;3.08;;
29712;SDS011;16623;53.632;10.016;2024-02-16T04:37:17;7.10;;;3.42;;
29712;SDS011;16623;53.632;10.016;2024-02-16T04:39:46;12.52;;;3.95;;
29712;SDS011;16623;53.632;10.016;2024-02-16T04:42:12;8.35;;;3.55;;
29712;SDS011;16623;53.632;10.016;2024-02-16T04:44:37;10.70;;;3.50;;
29712;SDS011;16623;53.632;10.016;2024-02-16T04:47:04;9.13;;;2.92;;
29712;SDS011;16623;53.632;10.016;2024-02-16T04:49:30;5.97;;;3.25;;
29712;SDS011;16623;53.632;10.016;2024-02-16T04:51:55;7.57;;;3.45;;
29712;SDS011;16623;53.632;10.016;2024-02-16T04:54:21;10.73;;;3.58;;
29712;SDS011;16623;53.632;10.016;2024-02-16T04:56:47;7.55;;;3.25;;
29712;SDS011;16623;53.632;10.016;2024-02-16T04:59:13;8.68;;;3.72;;
29712;SDS011;16623;53.632;10.016;2024-02-16T05:01:40;6.15;;;3.20;;
29712;SDS011;16623;53.632;10.016;2024-02-16T05:04:05;5.68;;;3.10;;
29712;SDS011;16623;53.632;10.016;2024-02-16T05:06:31;10.57;;;3.40;;
29712;SDS011;16623;53.632;10.016;2024-02-16T05:08:57;5.97;;;3.03;;
29712;SDS011;16623;53.632;10.016;2024-02-16T05:11:24;8.13;;;3.30;;
29712;SDS011;16623;53.632;10.016;2024-02-16T05:13:50;8.35;;;2.72;;
29712;SDS011;16623;53.632;10.016;2024-02-16T05:16:16;5.40;;;2.90;;
29712;SDS011;16623;53.632;10.016;2024-02-16T05:18:42;5.25;;;2.47;;
29712;SDS011;16623;53.632;10.016;2024-02-16T05:21:07;6.15;;;2.90;;
29712;SDS011;16623;53.632;10.016;2024-02-16T05:23:34;6.88;;;2.85;;
29712;SDS011;16623;53.632;10.016;2024-02-16T05:26:00;6.72;;;2.90;;
29712;SDS011;16623;53.632;10.016;2024-02-16T05:28:25;11.57;;;3.10;;
29712;SDS011;16623;53.632;10.016;2024-02-16T05:30:51;8.43;;;2.72;;
29712;SDS011;16623;53.632;10.016;2024-02-16T05:33:17;9.07;;;2.55;;
29712;SDS011;16623;53.632;10.016;2024-02-16T05:35:42;8.65;;;2.70;;
29712;SDS011;16623;53.632;10.016;2024-02-16T05:38:10;9.68;;;2.58;;
29712;SDS011;16623;53.632;10.016;2024-02-16T05:40:49;4.15;;;2.47;;
29712;SDS011;16623;53.632;10.016;2024-02-16T05:43:21;4.93;;;2.45;;
29712;SDS011;16623;53.632;10.016;2024-02-16T05:45:48;4.60;;;2.45;;
29712;SDS011;16623;53.632;10.016;2024-02-16T05:48:14;6.75;;;2.50;;
29712;SDS011;16623;53.632;10.016;2024-02-16T05:50:39;5.57;;;2.67;;
29712;SDS011;16623;53.632;10.016;2024-02-16T05:53:05;6.38;;;2.33;;
29712;SDS011;16623;53.632;10.016;2024-02-16T05:55:32;4.70;;;2.58;;
29712;SDS011;16623;53.632;10.016;2024-02-16T05:57:57;4.50;;;2.40;;
29712;SDS011;16623;53.632;10.016;2024-02-16T06:00:23;9.05;;;2.72;;
29712;SDS011;16623;53.632;10.016;2024-02-16T06:02:49;11.90;;;2.60;;
29712;SDS011;16623;53.632;10.016;2024-02-16T06:05:14;6.43;;;2.08;;
29712;SDS011;16623;53.632;10.016;2024-02-16T06:07:40;4.75;;;2.38;;
29712;SDS011;16623;53.632;10.016;2024-02-16T06:10:06;4.10;;;2.50;;
29712;SDS011;16623;53.632;10.016;2024-02-16T06:12:36;7.53;;;3.05;;
29712;SDS011;16623;53.632;10.016;2024-02-16T06:15:02;3.83;;;2.17;;
29712;SDS011;16623;53.632;10.016;2024-02-16T06:17:28;8.38;;;2.80;;
29712;SDS011;16623;53.632;10.016;2024-02-16T06:19:53;7.40;;;2.58;;
29712;SDS011;16623;53.632;10.016;2024-02-16T06:22:19;10.77;;;2.60;;
29712;SDS011;16623;53.632;10.016;2024-02-16T06:24:45;6.35;;;2.53;;
29712;SDS011;16623;53.632;10.016;2024-02-16T06:27:10;6.85;;;2.70;;
29712;SDS011;16623;53.632;10.016;2024-02-16T06:29:36;7.55;;;2.33;;
29712;SDS011;16623;53.632;10.016;2024-02-16T06:32:01;4.95;;;2.47;;
29712;SDS011;16623;53.632;10.016;2024-02-16T06:34:27;5.10;;;3.00;;
29712;SDS011;16623;53.632;10.016;2024-02-16T06:36:53;6.93;;;2.83;;
29712;SDS011;16623;53.632;10.016;2024-02-16T06:39:18;4.85;;;2.55;;
29712;SDS011;16623;53.632;10.016;2024-02-16T06:41:45;6.45;;;2.10;;
29712;SDS011;16623;53.632;10.016;2024-02-16T06:44:14;4.60;;;2.42;;
29712;SDS011;16623;53.632;10.016;2024-02-16T06:46:40;6.50;;;2.55;;
29712;SDS011;16623;53.632;10.016;2024-02-16T06:49:09;6.30;;;2.67;;
29712;SDS011;16623;53.632;10.016;2024-02-16T06:51:35;7.03;;;2.97;;
29712;SDS011;16623;53.632;10.016;2024-02-16T06:54:02;5.75;;;2.60;;
29712;SDS011;16623;53.632;10.016;2024-02-16T06:56:28;7.32;;;2.83;;
29712;SDS011;16623;53.632;10.016;2024-02-16T06:58:55;7.63;;;2.85;;
29712;SDS011;16623;53.632;10.016;2024-02-16T07:01:21;6.00;;;2.97;;
29712;SDS011;16623;53.632;10.016;2024-02-16T07:03:46;5.28;;;2.60;;
29712;SDS011;16623;53.632;10.016;2024-02-16T07:06:13;4.88;;;2.35;;
29712;SDS011;16623;53.632;10.016;2024-02-16T07:08:44;7.15;;;2.20;;
29712;SDS011;16623;53.632;10.016;2024-02-16T07:11:10;9.35;;;2.83;;
29712;SDS011;16623;53.632;10.016;2024-02-16T07:13:37;3.75;;;2.63;;
29712;SDS011;16623;53.632;10.016;2024-02-16T07:16:04;5.03;;;2.75;;
29712;SDS011;16623;53.632;10.016;2024-02-16T07:18:31;5.45;;;2.45;;
29712;SDS011;16623;53.632;10.016;2024-02-16T07:20:58;6.88;;;2.40;;
29712;SDS011;16623;53.632;10.016;2024-02-16T07:23:24;8.57;;;3.88;;
29712;SDS011;16623;53.632;10.016;2024-02-16T07:25:50;3.83;;;2.60;;
29712;SDS011;16623;53.632;10.016;2024-02-16T07:28:16;5.65;;;2.30;;
29712;SDS011;16623;53.632;10.016;2024-02-16T07:30:41;5.90;;;2.60;;
29712;SDS011;16623;53.632;10.016;2024-02-16T07:33:07;7.30;;;2.60;;
29712;SDS011;16623;53.632;10.016;2024-02-16T07:35:33;8.20;;;2.80;;
29712;SDS011;16623;53.632;10.016;2024-02-16T07:38:00;5.50;;;2.78;;
29712;SDS011;16623;53.632;10.016;2024-02-16T07:40:26;6.53;;;2.35;;
29712;SDS011;16623;53.632;10.016;2024-02-16T07:42:53;4.00;;;2.25;;
29712;SDS011;16623;53.632;10.016;2024-02-16T07:45:19;7.88;;;2.25;;
29712;SDS011;16623;53.632;10.016;2024-02-16T07:47:46;6.10;;;2.47;;
29712;SDS011;16623;53.632;10.016;2024-02-16T07:50:11;3.88;;;2.53;;
29712;SDS011;16623;53.632;10.016;2024-02-16T07:52:37;8.18;;;2.78;;
29712;SDS011;16623;53.632;10.016;2024-02-16T07:55:05;6.60;;;1.98;;
29712;SDS011;16623;53.632;10.016;2024-02-16T07:57:31;4.72;;;1.92;;
29712;SDS011;16623;53.632;10.016;2024-02-16T08:00:00;4.22;;;2.22;;
29712;SDS011;16623;53.632;10.016;2024-02-16T08:02:25;6.43;;;2.70;;
29712;SDS011;16623;53.632;10.016;2024-02-16T08:04:51;8.95;;;2.53;;
29712;SDS011;16623;53.632;10.016;2024-02-16T08:07:19;5.10;;;2.20;;
29712;SDS011;16623;53.632;10.016;2024-02-16T08:09:45;3.40;;;1.98;;
29712;SDS011;16623;53.632;10.016;2024-02-16T08:12:15;4.45;;;2.00;;
29712;SDS011;16623;53.632;10.016;2024-02-16T08:14:41;4.90;;;2.42;;
29712;SDS011;16623;53.632;10.016;2024-02-16T08:17:08;5.97;;;2.38;;
29712;SDS011;16623;53.632;10.016;2024-02-16T08:19:36;8.02;;;2.42;;
29712;SDS011;16623;53.632;10.016;2024-02-16T08:22:03;8.73;;;3.13;;
29712;SDS011;16623;53.632;10.016;2024-02-16T08:24:36;6.40;;;2.15;;
29712;SDS011;16623;53.632;10.016;2024-02-16T08:27:01;9.30;;;2.35;;
29712;SDS011;16623;53.632;10.016;2024-02-16T08:29:29;4.88;;;2.65;;
29712;SDS011;16623;53.632;10.016;2024-02-16T08:31:55;5.70;;;2.30;;
29712;SDS011;16623;53.632;10.016;2024-02-16T08:34:21;3.00;;;2.55;;
29712;SDS011;16623;53.632;10.016;2024-02-16T08:36:47;6.03;;;2.15;;
29712;SDS011;16623;53.632;10.016;2024-02-16T08:39:13;10.50;;;2.95;;
29712;SDS011;16623;53.632;10.016;2024-02-16T08:41:40;4.20;;;1.90;;
29712;SDS011;16623;53.632;10.016;2024-02-16T08:44:06;6.03;;;2.40;;
29712;SDS011;16623;53.632;10.016;2024-02-16T08:46:38;5.03;;;2.22;;
29712;SDS011;16623;53.632;10.016;2024-02-16T08:49:04;5.05;;;2.38;;
29712;SDS011;16623;53.632;10.016;2024-02-16T08:51:33;3.88;;;1.80;;
29712;SDS011;16623;53.632;10.016;2024-02-16T08:53:59;5.55;;;2.10;;
29712;SDS011;16623;53.632;10.016;2024-02-16T08:56:25;7.80;;;2.90;;
29712;SDS011;16623;53.632;10.016;2024-02-16T08:58:52;7.07;;;2.88;;
29712;SDS011;16623;53.632;10.016;2024-02-16T09:01:17;4.50;;;2.33;;
29712;SDS011;16623;53.632;10.016;2024-02-16T09:03:43;5.60;;;1.52;;
29712;SDS011;16623;53.632;10.016;2024-02-16T09:06:08;2.65;;;1.90;;
29712;SDS011;16623;53.632;10.016;2024-02-16T09:08:34;8.38;;;1.92;;
29712;SDS011;16623;53.632;10.016;2024-02-16T09:11:03;5.38;;;2.47;;
29712;SDS011;16623;53.632;10.016;2024-02-16T09:13:31;4.07;;;2.08;;
29712;SDS011;16623;53.632;10.016;2024-02-16T09:16:01;14.32;;;2.92;;
29712;SDS011;16623;53.632;10.016;2024-02-16T09:18:29;5.45;;;1.95;;
29712;SDS011;16623;53.632;10.016;2024-02-16T09:20:55;4.13;;;2.05;;
29712;SDS011;16623;53.632;10.016;2024-02-16T09:23:20;4.50;;;2.30;;
29712;SDS011;16623;53.632;10.016;2024-02-16T09:25:46;4.18;;;2.28;;
29712;SDS011;16623;53.632;10.016;2024-02-16T09:28:13;2.25;;;1.83;;
29712;SDS011;16623;53.632;10.016;2024-02-16T09:30:39;4.85;;;2.30;;
29712;SDS011;16623;53.632;10.016;2024-02-16T09:33:04;6.60;;;2.45;;
29712;SDS011;16623;53.632;10.016;2024-02-16T09:35:35;7.53;;;2.53;;
29712;SDS011;16623;53.632;10.016;2024-02-16T09:38:00;6.85;;;2.30;;
29712;SDS011;16623;53.632;10.016;2024-02-16T09:40:46;7.50;;;2.22;;
29712;SDS011;16623;53.632;10.016;2024-02-16T09:43:23;7.30;;;2.20;;
29712;SDS011;16623;53.632;10.016;2024-02-16T09:45:54;4.10;;;1.88;;
29712;SDS011;16623;53.632;10.016;2024-02-16T09:48:27;4.45;;;2.13;;
29712;SDS011;16623;53.632;10.016;2024-02-16T09:50:54;9.93;;;2.35;;
29712;SDS011;16623;53.632;10.016;2024-02-16T09:53:21;4.90;;;2.10;;
29712;SDS011;16623;53.632;10.016;2024-02-16T09:55:52;6.88;;;2.20;;
29712;SDS011;16623;53.632;10.016;2024-02-16T09:58:19;4.70;;;2.45;;
29712;SDS011;16623;53.632;10.016;2024-02-16T10:00:52;6.63;;;2.22;;
29712;SDS011;16623;53.632;10.016;2024-02-16T10:03:29;3.53;;;1.95;;
29712;SDS011;16623;53.632;10.016;2024-02-16T10:06:09;3.08;;;2.22;;
29712;SDS011;16623;53.632;10.016;2024-02-16T10:08:52;7.85;;;2.45;;
29712;SDS011;16623;53.632;10.016;2024-02-16T10:11:31;5.68;;;2.20;;
29712;SDS011;16623;53.632;10.016;2024-02-16T10:14:00;3.47;;;2.08;;
29712;SDS011;16623;53.632;10.016;2024-02-16T10:16:29;7.50;;;2.42;;
29712;SDS011;16623;53.632;10.016;2024-02-16T10:18:55;5.78;;;2.42;;
29712;SDS011;16623;53.632;10.016;2024-02-16T10:21:37;4.38;;;2.00;;
29712;SDS011;16623;53.632;10.016;2024-02-16T10:24:07;5.25;;;2.00;;
29712;SDS011;16623;53.632;10.016;2024-02-16T10:26:35;6.93;;;2.35;;
29712;SDS011;16623;53.632;10.016;2024-02-16T10:29:05;5.97;;;2.40;;
29712;SDS011;16623;53.632;10.016;2024-02-16T10:31:35;5.80;;;2.00;;
29712;SDS011;16623;53.632;10.016;2024-02-16T10:34:03;10.98;;;2.10;;
29712;SDS011;16623;53.632;10.016;2024-02-16T10:36:35;3.83;;;2.25;;
29712;SDS011;16623;53.632;10.016;2024-02-16T10:39:03;5.45;;;2.28;;
29712;SDS011;16623;53.632;10.016;2024-02-16T10:41:35;8.60;;;2.65;;
29712;SDS011;16623;53.632;10.016;2024-02-16T10:44:02;4.03;;;2.15;;
29712;SDS011;16623;53.632;10.016;2024-02-16T10:46:29;8.35;;;2.22;;
29712;SDS011;16623;53.632;10.016;2024-02-16T10:48:54;3.97;;;2.30;;
29712;SDS011;16623;53.632;10.016;2024-02-16T10:51:23;7.68;;;2.67;;
29712;SDS011;16623;53.632;10.016;2024-02-16T10:53:53;4.90;;;2.40;;
29712;SDS011;16623;53.632;10.016;2024-02-16T10:56:32;4.70;;;2.35;;
29712;SDS011;16623;53.632;10.016;2024-02-16T10:59:02;10.43;;;2.60;;
29712;SDS011;16623;53.632;10.016;2024-02-16T11:01:31;5.32;;;2.40;;
29712;SDS011;16623;53.632;10.016;2024-02-16T11:04:01;3.83;;;2.13;;
29712;SDS011;16623;53.632;10.016;2024-02-16T11:06:28;5.03;;;2.78;;
29712;SDS011;16623;53.632;10.016;2024-02-16T11:08:53;6.75;;;2.88;;
29712;SDS011;16623;53.632;10.016;2024-02-16T11:11:22;6.25;;;2.42;;
29712;SDS011;16623;53.632;10.016;2024-02-16T11:13:48;5.85;;;2.47;;
29712;SDS011;16623;53.632;10.016;2024-02-16T11:16:14;8.82;;;2.90;;
29712;SDS011;16623;53.632;10.016;2024-02-16T11:18:45;4.60;;;1.90;;
29712;SDS011;16623;53.632;10.016;2024-02-16T11:21:14;3.92;;;2.10;;
29712;SDS011;16623;53.632;10.016;2024-02-16T11:23:41;7.25;;;2.17;;
29712;SDS011;16623;53.632;10.016;2024-02-16T11:26:11;5.10;;;1.80;;
29712;SDS011;16623;53.632;10.016;2024-02-16T11:28:38;3.60;;;2.05;;
29712;SDS011;16623;53.632;10.016;2024-02-16T11:31:06;4.63;;;2.00;;
29712;SDS011;16623;53.632;10.016;2024-02-16T11:33:32;3.55;;;2.20;;
29712;SDS011;16623;53.632;10.016;2024-02-16T11:35:59;10.85;;;2.78;;
29712;SDS011;16623;53.632;10.016;2024-02-16T11:38:30;9.82;;;2.13;;
29712;SDS011;16623;53.632;10.016;2024-02-16T11:41:04;4.93;;;1.98;;
29712;SDS011;16623;53.632;10.016;2024-02-16T11:43:32;2.60;;;2.10;;
29712;SDS011;16623;53.632;10.016;2024-02-16T11:45:58;4.20;;;2.10;;
29712;SDS011;16623;53.632;10.016;2024-02-16T11:48:27;6.50;;;2.45;;
29712;SDS011;16623;53.632;10.016;2024-02-16T11:51:03;5.43;;;1.98;;
29712;SDS011;16623;53.632;10.016;2024-02-16T11:53:29;3.10;;;1.90;;
29712;SDS011;16623;53.632;10.016;2024-02-16T11:55:55;5.25;;;1.90;;
29712;SDS011;16623;53.632;10.016;2024-02-16T11:58:22;8.00;;;2.00;;
29712;SDS011;16623;53.632;10.016;2024-02-16T12:00:49;6.15;;;2.05;;
29712;SDS011;16623;53.632;10.016;2024-02-16T12:03:23;6.10;;;2.30;;
29712;SDS011;16623;53.632;10.016;2024-02-16T12:05:50;7.60;;;3.05;;
29712;SDS011;16623;53.632;10.016;2024-02-16T12:08:16;5.05;;;1.80;;
29712;SDS011;16623;53.632;10.016;2024-02-16T12:10:43;4.07;;;1.88;;
29712;SDS011;16623;53.632;10.016;2024-02-16T12:13:09;3.10;;;2.10;;
29712;SDS011;16623;53.632;10.016;2024-02-16T12:15:37;5.25;;;2.20;;
29712;SDS011;16623;53.632;10.016;2024-02-16T12:18:03;7.90;;;2.50;;
29712;SDS011;16623;53.632;10.016;2024-02-16T12:20:29;5.88;;;2.33;;
29712;SDS011;16623;53.632;10.016;2024-02-16T12:22:58;4.28;;;2.25;;
29712;SDS011;16623;53.632;10.016;2024-02-16T12:25:27;8.18;;;2.33;;
29712;SDS011;16623;53.632;10.016;2024-02-16T12:27:52;6.00;;;2.35;;
29712;SDS011;16623;53.632;10.016;2024-02-16T12:30:21;7.65;;;2.38;;
29712;SDS011;16623;53.632;10.016;2024-02-16T12:32:47;7.32;;;2.38;;
29712;SDS011;16623;53.632;10.016;2024-02-16T12:35:12;8.48;;;2.47;;
29712;SDS011;16623;53.632;10.016;2024-02-16T12:37:38;4.55;;;2.30;;
29712;SDS011;16623;53.632;10.016;2024-02-16T12:40:03;6.95;;;2.00;;
29712;SDS011;16623;53.632;10.016;2024-02-16T12:42:31;4.50;;;2.80;;
29712;SDS011;16623;53.632;10.016;2024-02-16T12:44:57;4.97;;;2.47;;
29712;SDS011;16623;53.632;10.016;2024-02-16T12:47:22;6.05;;;2.38;;
29712;SDS011;16623;53.632;10.016;2024-02-16T12:49:48;5.28;;;2.42;;
29712;SDS011;16623;53.632;10.016;2024-02-16T12:52:19;6.70;;;3.22;;
29712;SDS011;16623;53.632;10.016;2024-02-16T12:54:47;5.85;;;2.42;;
29712;SDS011;16623;53.632;10.016;2024-02-16T12:57:13;4.53;;;2.65;;
29712;SDS011;16623;53.632;10.016;2024-02-16T12:59:38;4.45;;;2.78;;
29712;SDS011;16623;53.632;10.016;2024-02-16T13:02:04;6.07;;;2.70;;
29712;SDS011;16623;53.632;10.016;2024-02-16T13:04:30;5.82;;;2.95;;
29712;SDS011;16623;53.632;10.016;2024-02-16T13:06:57;5.22;;;2.75;;
29712;SDS011;16623;53.632;10.016;2024-02-16T13:09:23;6.30;;;2.70;;
29712;SDS011;16623;53.632;10.016;2024-02-16T13:11:48;5.13;;;2.90;;
29712;SDS011;16623;53.632;10.016;2024-02-16T13:14:19;6.35;;;2.60;;
29712;SDS011;16623;53.632;10.016;2024-02-16T13:16:47;6.95;;;3.50;;
29712;SDS011;16623;53.632;10.016;2024-02-16T13:19:13;8.25;;;3.15;;
29712;SDS011;16623;53.632;10.016;2024-02-16T13:21:39;12.93;;;3.22;;
29712;SDS011;16623;53.632;10.016;2024-02-16T13:24:05;5.35;;;3.13;;
29712;SDS011;16623;53.632;10.016;2024-02-16T13:26:32;9.18;;;2.78;;
29712;SDS011;16623;53.632;10.016;2024-02-16T13:28:59;4.00;;;3.05;;
29712;SDS011;16623;53.632;10.016;2024-02-16T13:31:25;7.95;;;2.72;;
29712;SDS011;16623;53.632;10.016;2024-02-16T13:33:52;4.80;;;2.63;;
29712;SDS011;16623;53.632;10.016;2024-02-16T13:36:18;10.85;;;3.42;;
29712;SDS011;16623;53.632;10.016;2024-02-16T13:38:49;6.97;;;2.92;;
29712;SDS011;16623;53.632;10.016;2024-02-16T13:41:20;6.85;;;2.95;;
29712;SDS011;16623;53.632;10.016;2024-02-16T13:43:51;6.38;;;3.20;;
29712;SDS011;16623;53.632;10.016;2024-02-16T13:46:18;6.60;;;3.50;;
29712;SDS011;16623;53.632;10.016;2024-02-16T13:48:49;6.50;;;3.45;;
29712;SDS011;16623;53.632;10.016;2024-02-16T13:51:21;9.73;;;3.50;;
29712;SDS011;16623;53.632;10.016;2024-02-16T13:53:47;7.07;;;4.07;;
29712;SDS011;16623;53.632;10.016;2024-02-16T13:56:12;8.43;;;3.50;;
29712;SDS011;16623;53.632;10.016;2024-02-16T13:58:38;6.30;;;3.67;;
29712;SDS011;16623;53.632;10.016;2024-02-16T14:01:04;7.30;;;3.50;;
29712;SDS011;16623;53.632;10.016;2024-02-16T14:03:31;7.82;;;4.20;;
29712;SDS011;16623;53.632;10.016;2024-02-16T14:06:05;5.30;;;3.03;;
29712;SDS011;16623;53.632;10.016;2024-02-16T14:08:33;9.50;;;3.70;;
29712;SDS011;16623;53.632;10.016;2024-02-16T14:10:58;15.32;;;5.22;;
29712;SDS011;16623;53.632;10.016;2024-02-16T14:13:24;10.57;;;4.63;;
29712;SDS011;16623;53.632;10.016;2024-02-16T14:15:50;10.35;;;5.43;;
29712;SDS011;16623;53.632;10.016;2024-02-16T14:18:17;5.93;;;3.38;;
29712;SDS011;16623;53.632;10.016;2024-02-16T14:20:43;8.30;;;3.40;;
29712;SDS011;16623;53.632;10.016;2024-02-16T14:23:08;7.50;;;3.63;;
29712;SDS011;16623;53.632;10.016;2024-02-16T14:25:36;11.20;;;3.80;;
29712;SDS011;16623;53.632;10.016;2024-02-16T14:28:05;7.57;;;3.80;;
29712;SDS011;16623;53.632;10.016;2024-02-16T14:30:31;14.70;;;4.10;;
29712;SDS011;16623;53.632;10.016;2024-02-16T14:32:58;10.13;;;4.55;;